createdAt,value
2019-03-30T00:00:09.295Z,59.33
2019-03-30T00:02:38.741Z,59.44
2019-03-30T00:05:08.155Z,59.71
2019-03-30T00:07:37.519Z,59.00
2019-03-30T00:10:06.947Z,59.19
2019-03-30T00:12:36.366Z,59.06
2019-03-30T00:15:06.555Z,59.00
2019-03-30T00:17:35.911Z,59.09
2019-03-30T00:20:06.628Z,59.17
2019-03-30T00:22:35.968Z,59.48
2019-03-30T00:25:07.241Z,59.50
2019-03-30T00:27:36.606Z,59.03
2019-03-30T00:30:08.642Z,58.93
2019-03-30T00:32:38.004Z,58.86
2019-03-30T00:35:07.689Z,59.18
2019-03-30T00:37:37.033Z,59.54
2019-03-30T00:40:07.428Z,59.51
2019-03-30T00:42:36.773Z,59.90
2019-03-30T00:45:09.193Z,60.29
2019-03-30T00:47:38.536Z,60.17
2019-03-30T00:50:07.880Z,60.20
2019-03-30T00:52:37.230Z,59.90
2019-03-30T00:55:09.276Z,60.25
2019-03-30T00:57:38.644Z,60.36
2019-03-30T01:00:08.041Z,60.32
2019-03-30T01:02:37.377Z,60.35
2019-03-30T01:05:08.112Z,60.06
2019-03-30T01:07:37.454Z,60.90
2019-03-30T01:10:07.262Z,60.76
2019-03-30T01:12:36.629Z,60.53
2019-03-30T01:15:09.068Z,60.54
2019-03-30T01:17:38.416Z,60.62
2019-03-30T01:20:08.566Z,60.45
2019-03-30T01:22:37.914Z,60.54
2019-03-30T01:25:08.430Z,60.94
2019-03-30T01:27:37.771Z,60.96
2019-03-30T01:30:22.182Z,60.76
2019-03-30T01:32:39.162Z,60.79
2019-03-30T01:35:08.615Z,60.82
2019-03-30T01:37:38.096Z,61.30
2019-03-30T01:40:09.087Z,61.06
2019-03-30T01:42:38.463Z,60.82
2019-03-30T01:45:09.532Z,61.61
2019-03-30T01:47:38.877Z,61.73
2019-03-30T01:50:17.334Z,61.68
2019-03-30T01:52:40.486Z,61.36
2019-03-30T01:55:09.834Z,62.06
2019-03-30T01:57:39.219Z,61.58
2019-03-30T02:00:10.093Z,61.69
2019-03-30T02:02:39.511Z,62.11
2019-03-30T02:05:09.083Z,62.47
2019-03-30T02:07:38.442Z,62.26
2019-03-30T02:10:08.837Z,62.25
2019-03-30T02:12:38.363Z,62.65
2019-03-30T02:15:07.707Z,62.51
2019-03-30T02:17:37.077Z,62.34
2019-03-30T02:20:08.267Z,62.64
2019-03-30T02:22:37.689Z,63.50
2019-03-30T02:25:09.873Z,63.48
2019-03-30T02:27:38.524Z,63.16
2019-03-30T02:30:07.972Z,62.92
2019-03-30T02:32:37.637Z,63.57
2019-03-30T02:35:07.790Z,63.59
2019-03-30T02:37:37.104Z,63.76
2019-03-30T02:40:07.782Z,63.38
2019-03-30T02:42:37.134Z,63.75
2019-03-30T02:45:07.750Z,64.47
2019-03-30T02:47:37.133Z,64.99
2019-03-30T02:50:07.319Z,64.45
2019-03-30T02:52:36.667Z,64.12
2019-03-30T02:55:12.437Z,64.42
2019-03-30T02:57:38.966Z,64.06
2019-03-30T03:00:10.812Z,63.70
2019-03-30T03:02:40.161Z,63.98
2019-03-30T03:05:09.485Z,64.05
2019-03-30T03:07:38.899Z,63.66
2019-03-30T03:10:08.403Z,63.50
2019-03-30T03:12:37.767Z,63.54
2019-03-30T03:15:08.036Z,63.88
2019-03-30T03:17:37.384Z,63.65
2019-03-30T03:20:07.381Z,63.59
2019-03-30T03:22:36.781Z,63.33
2019-03-30T03:25:08.085Z,63.56
2019-03-30T03:27:37.408Z,63.71
2019-03-30T03:30:07.284Z,64.13
2019-03-30T03:32:36.649Z,64.03
2019-03-30T03:35:06.275Z,64.04
2019-03-30T03:37:44.718Z,64.01
2019-03-30T03:40:09.019Z,63.89
2019-03-30T03:42:38.717Z,64.21
2019-03-30T03:45:08.960Z,64.05
2019-03-30T03:47:38.304Z,64.08
2019-03-30T03:50:07.685Z,64.00
2019-03-30T03:52:37.028Z,63.60
2019-03-30T03:55:07.013Z,63.35
2019-03-30T03:57:40.882Z,63.73
2019-03-30T04:00:10.760Z,64.11
2019-03-30T04:02:40.125Z,64.16
2019-03-30T04:05:09.720Z,63.94
2019-03-30T04:07:41.064Z,64.07
2019-03-30T04:10:11.467Z,64.32
2019-03-30T04:12:41.782Z,64.21
2019-03-30T04:15:16.159Z,64.24
2019-03-30T04:17:45.525Z,64.05
2019-03-30T04:20:19.748Z,64.53
2019-03-30T04:22:49.110Z,64.77
2019-03-30T04:25:18.514Z,65.25
2019-03-30T04:27:47.894Z,65.19
2019-03-30T04:30:17.242Z,64.98
2019-03-30T04:32:46.588Z,65.55
2019-03-30T04:35:16.021Z,65.83
2019-03-30T04:37:45.373Z,65.40
2019-03-30T04:40:15.334Z,65.09
2019-03-30T04:42:44.653Z,65.32
2019-03-30T04:45:14.007Z,65.62
2019-03-30T04:47:43.367Z,65.38
2019-03-30T04:50:12.704Z,65.18
2019-03-30T04:52:42.092Z,65.15
2019-03-30T04:55:11.415Z,65.18
2019-03-30T04:57:40.782Z,65.06
2019-03-30T05:00:10.700Z,65.56
2019-03-30T05:02:40.047Z,65.78
2019-03-30T05:05:09.416Z,65.87
2019-03-30T05:07:38.768Z,65.42
2019-03-30T05:10:09.140Z,65.33
2019-03-30T05:12:38.498Z,65.18
2019-03-30T05:15:07.839Z,65.54
2019-03-30T05:17:47.054Z,66.14
2019-03-30T05:20:08.285Z,66.30
2019-03-30T05:22:37.615Z,66.57
2019-03-30T05:25:06.986Z,66.44
2019-03-30T05:27:36.326Z,65.99
2019-03-30T05:30:07.640Z,65.87
2019-03-30T05:32:36.966Z,66.09
2019-03-30T05:35:09.325Z,66.32
2019-03-30T05:37:38.706Z,66.33
2019-03-30T05:40:08.383Z,66.26
2019-03-30T05:42:37.757Z,66.23
2019-03-30T05:45:07.959Z,65.99
2019-03-30T05:47:37.297Z,66.12
2019-03-30T05:50:07.857Z,66.30
2019-03-30T05:52:37.198Z,66.03
2019-03-30T05:55:06.580Z,66.25
2019-03-30T05:57:35.909Z,66.16
2019-03-30T06:00:07.487Z,66.24
2019-03-30T06:02:36.840Z,66.34
2019-03-30T06:05:06.193Z,66.50
2019-03-30T06:07:35.553Z,66.72
2019-03-30T06:10:06.744Z,66.42
2019-03-30T06:12:36.079Z,66.80
2019-03-30T06:15:08.184Z,66.65
2019-03-30T06:17:36.904Z,66.48
2019-03-30T06:20:07.528Z,66.36
2019-03-30T06:22:40.489Z,66.73
2019-03-30T06:25:07.969Z,67.17
2019-03-30T06:27:37.323Z,66.14
2019-03-30T06:30:25.075Z,65.68
2019-03-30T06:32:54.433Z,65.65
2019-03-30T06:35:23.768Z,65.58
2019-03-30T06:37:53.138Z,65.88
2019-03-30T06:40:22.472Z,64.69
2019-03-30T06:42:51.842Z,64.36
2019-03-30T06:45:21.191Z,63.67
2019-03-30T06:47:50.545Z,63.38
2019-03-30T06:50:20.659Z,63.01
2019-03-30T06:52:57.294Z,62.64
2019-03-30T06:55:21.099Z,62.40
2019-03-30T06:57:50.501Z,62.63
2019-03-30T07:00:24.750Z,61.99
2019-03-30T07:02:54.096Z,61.53
2019-03-30T07:05:23.437Z,61.11
2019-03-30T07:07:52.819Z,61.65
2019-03-30T07:10:22.242Z,60.66
2019-03-30T07:12:52.356Z,59.50
2019-03-30T07:15:21.723Z,58.78
2019-03-30T07:17:51.076Z,58.13
2019-03-30T07:20:28.726Z,57.77
2019-03-30T07:23:11.317Z,56.45
2019-03-30T07:25:29.266Z,56.00
2019-03-30T07:27:58.771Z,55.53
2019-03-30T07:30:28.135Z,54.92
2019-03-30T07:32:57.515Z,54.86
2019-03-30T07:35:26.882Z,54.03
2019-03-30T07:37:56.221Z,54.32
2019-03-30T07:40:25.591Z,53.67
2019-03-30T07:42:54.950Z,53.94
2019-03-30T07:45:24.336Z,53.40
2019-03-30T07:47:53.709Z,53.11
2019-03-30T07:50:23.048Z,53.00
2019-03-30T07:52:52.423Z,53.20
2019-03-30T07:55:21.780Z,53.17
2019-03-30T07:57:51.267Z,52.77
2019-03-30T08:00:21.236Z,52.14
2019-03-30T08:02:50.580Z,52.01
2019-03-30T08:05:19.974Z,52.07
2019-03-30T08:07:49.310Z,51.62
2019-03-30T08:10:18.722Z,51.40
2019-03-30T08:12:48.039Z,51.39
2019-03-30T08:15:17.426Z,50.80
2019-03-30T08:17:46.788Z,50.69
2019-03-30T08:20:16.157Z,50.72
2019-03-30T08:22:45.535Z,51.03
2019-03-30T08:25:15.164Z,51.04
2019-03-30T08:27:44.608Z,51.10
2019-03-30T08:30:13.966Z,51.95
2019-03-30T08:32:43.318Z,51.39
2019-03-30T08:35:12.717Z,52.01
2019-03-30T08:37:42.080Z,52.34
2019-03-30T08:40:11.424Z,51.78
2019-03-30T08:42:40.790Z,51.64
2019-03-30T08:45:10.225Z,51.40
2019-03-30T08:47:39.594Z,51.38
2019-03-30T08:50:09.631Z,51.75
2019-03-30T08:52:39.053Z,51.33
2019-03-30T08:55:09.567Z,51.12
2019-03-30T08:57:38.929Z,51.24
2019-03-30T09:00:08.302Z,51.31
2019-03-30T09:02:37.636Z,51.88
2019-03-30T09:05:08.137Z,51.85
2019-03-30T09:07:37.509Z,52.08
2019-03-30T09:10:08.999Z,52.35
2019-03-30T09:12:38.553Z,52.69
2019-03-30T09:15:08.556Z,52.92
2019-03-30T09:17:37.909Z,52.99
2019-03-30T09:20:08.792Z,52.87
2019-03-30T09:22:38.209Z,52.67
2019-03-30T09:25:07.678Z,52.61
2019-03-30T09:27:37.027Z,52.48
2019-03-30T09:30:08.492Z,52.13
2019-03-30T09:32:37.955Z,52.00
2019-03-30T09:35:09.106Z,51.60
2019-03-30T09:37:38.494Z,51.22
2019-03-30T09:40:10.787Z,51.08
2019-03-30T09:42:40.138Z,50.64
2019-03-30T09:45:09.509Z,50.26
2019-03-30T09:47:38.889Z,49.76
2019-03-30T09:50:08.990Z,49.57
2019-03-30T09:52:38.344Z,49.23
2019-03-30T09:55:08.498Z,48.99
2019-03-30T09:57:37.939Z,48.58
2019-03-30T10:00:07.723Z,48.53
2019-03-30T10:02:37.091Z,47.99
2019-03-30T10:05:06.439Z,47.59
2019-03-30T10:07:35.824Z,47.12
2019-03-30T10:10:06.229Z,47.15
2019-03-30T10:12:35.566Z,46.35
2019-03-30T10:15:07.371Z,45.84
2019-03-30T10:17:36.793Z,45.13
2019-03-30T10:20:07.994Z,45.13
2019-03-30T10:22:37.359Z,45.00
2019-03-30T10:25:07.592Z,44.65
2019-03-30T10:27:36.971Z,44.09
2019-03-30T10:30:11.456Z,43.33
2019-03-30T10:32:40.817Z,42.70
2019-03-30T10:35:10.260Z,42.33
2019-03-30T10:37:39.626Z,41.90
2019-03-30T10:40:09.006Z,41.14
2019-03-30T10:42:38.347Z,41.08
2019-03-30T10:45:10.550Z,40.89
2019-03-30T10:47:39.915Z,40.47
2019-03-30T10:50:09.276Z,40.00
2019-03-30T10:52:38.928Z,39.89
2019-03-30T10:55:08.534Z,40.04
2019-03-30T10:57:38.213Z,39.24
2019-03-30T11:00:10.255Z,38.69
2019-03-30T11:02:39.436Z,38.83
2019-03-30T11:05:08.839Z,38.85
2019-03-30T11:07:38.190Z,38.24
2019-03-30T11:10:10.260Z,37.68
2019-03-30T11:12:38.906Z,36.34
2019-03-30T11:15:08.286Z,35.77
2019-03-30T11:17:37.689Z,35.56
2019-03-30T11:20:07.041Z,35.57
2019-03-30T11:22:36.370Z,34.09
2019-03-30T11:25:08.535Z,34.06
2019-03-30T11:27:36.993Z,34.04
2019-03-30T11:30:07.705Z,34.30
2019-03-30T11:32:37.064Z,33.14
2019-03-30T11:35:07.000Z,33.49
2019-03-30T11:37:36.340Z,32.39
2019-03-30T11:40:07.333Z,31.96
2019-03-30T11:42:36.722Z,32.36
2019-03-30T11:45:07.297Z,31.55
2019-03-30T11:47:36.637Z,31.46
2019-03-30T11:50:07.774Z,31.73
2019-03-30T11:52:37.129Z,31.39
2019-03-30T11:55:21.188Z,31.05
2019-03-30T11:57:40.256Z,31.49
2019-03-30T12:00:09.620Z,31.22
2019-03-30T12:02:38.969Z,31.59
2019-03-30T12:05:08.678Z,32.14
2019-03-30T12:07:38.058Z,31.96
2019-03-30T12:10:07.400Z,30.00
2019-03-30T12:12:37.437Z,29.97
2019-03-30T12:15:09.916Z,30.26
2019-03-30T12:17:41.087Z,29.46
2019-03-30T12:20:09.701Z,29.87
2019-03-30T12:22:39.034Z,30.17
2019-03-30T12:25:08.383Z,29.77
2019-03-30T12:27:37.754Z,30.64
2019-03-30T12:30:07.581Z,30.23
2019-03-30T12:32:36.941Z,29.35
2019-03-30T12:35:07.857Z,29.18
2019-03-30T12:37:37.843Z,29.21
2019-03-30T12:40:07.678Z,29.81
2019-03-30T12:42:37.020Z,29.34
2019-03-30T12:45:09.966Z,29.88
2019-03-30T12:47:39.348Z,30.32
2019-03-30T12:50:08.703Z,30.20
2019-03-30T12:52:38.078Z,30.47
2019-03-30T12:55:07.421Z,30.30
2019-03-30T12:57:36.864Z,30.26
2019-03-30T13:00:10.949Z,29.59
2019-03-30T13:02:40.317Z,29.76
2019-03-30T13:05:09.754Z,29.75
2019-03-30T13:07:39.095Z,29.21
2019-03-30T13:10:08.511Z,28.03
2019-03-30T13:12:37.887Z,28.44
2019-03-30T13:15:08.282Z,29.19
2019-03-30T13:17:37.623Z,29.37
2019-03-30T13:20:07.756Z,28.88
2019-03-30T13:22:37.104Z,28.07
2019-03-30T13:25:06.623Z,27.81
2019-03-30T13:27:35.980Z,27.47
2019-03-30T13:30:08.529Z,27.54
2019-03-30T13:32:37.862Z,28.01
2019-03-30T13:35:07.238Z,27.56
2019-03-30T13:37:36.599Z,27.81
2019-03-30T13:40:08.908Z,27.49
2019-03-30T13:42:38.360Z,26.85
2019-03-30T13:45:07.949Z,27.15
2019-03-30T13:47:37.340Z,24.53
2019-03-30T13:50:07.167Z,25.42
2019-03-30T13:52:36.514Z,25.30
2019-03-30T13:55:06.765Z,25.62
2019-03-30T13:57:36.182Z,25.87
2019-03-30T14:00:08.211Z,26.48
2019-03-30T14:02:36.857Z,26.72
2019-03-30T14:05:06.822Z,27.23
2019-03-30T14:07:36.208Z,27.21
2019-03-30T14:10:07.776Z,26.97
2019-03-30T14:12:37.106Z,27.19
2019-03-30T14:15:09.210Z,26.08
2019-03-30T14:17:37.686Z,24.58
2019-03-30T14:20:08.618Z,25.33
2019-03-30T14:22:38.441Z,24.82
2019-03-30T14:25:08.422Z,23.67
2019-03-30T14:27:37.784Z,23.81
2019-03-30T14:30:10.395Z,24.16
2019-03-30T14:32:39.790Z,22.83
2019-03-30T14:35:09.133Z,23.43
2019-03-30T14:37:38.483Z,23.77
2019-03-30T14:40:09.481Z,22.09
2019-03-30T14:42:38.888Z,22.01
2019-03-30T14:45:08.711Z,22.71
2019-03-30T14:47:38.067Z,23.12
2019-03-30T14:50:09.908Z,23.13
2019-03-30T14:52:39.275Z,23.41
2019-03-30T14:55:09.460Z,23.53
2019-03-30T14:57:38.839Z,23.25
2019-03-30T15:00:11.327Z,22.11
2019-03-30T15:02:40.889Z,21.58
2019-03-30T15:05:10.683Z,21.73
2019-03-30T15:07:40.033Z,21.41
2019-03-30T15:10:11.199Z,21.60
2019-03-30T15:12:40.613Z,21.68
2019-03-30T15:15:10.319Z,21.34
2019-03-30T15:17:40.925Z,20.89
2019-03-30T15:20:11.470Z,20.23
2019-03-30T15:22:40.903Z,20.81
2019-03-30T15:25:10.758Z,19.96
2019-03-30T15:27:40.110Z,20.26
2019-03-30T15:30:09.507Z,21.61
2019-03-30T15:32:38.884Z,21.83
2019-03-30T15:35:09.139Z,21.59
2019-03-30T15:37:38.471Z,21.13
2019-03-30T15:40:08.126Z,20.90
2019-03-30T15:42:40.051Z,20.78
2019-03-30T15:45:10.389Z,20.48
2019-03-30T15:47:39.833Z,20.91
2019-03-30T15:50:09.271Z,21.52
2019-03-30T15:52:38.664Z,20.67
2019-03-30T15:55:08.319Z,20.54
2019-03-30T15:57:37.749Z,19.84
2019-03-30T16:00:12.531Z,19.99
2019-03-30T16:02:41.865Z,20.08
2019-03-30T16:05:11.201Z,19.30
2019-03-30T16:07:40.586Z,19.16
2019-03-30T16:10:09.992Z,19.42
2019-03-30T16:12:39.381Z,19.44
2019-03-30T16:15:08.872Z,18.91
2019-03-30T16:17:38.208Z,18.69
2019-03-30T16:20:08.214Z,18.67
2019-03-30T16:22:37.555Z,19.03
2019-03-30T16:25:07.875Z,18.98
2019-03-30T16:27:39.173Z,18.98
2019-03-30T16:30:08.358Z,19.05
2019-03-30T16:32:37.732Z,19.42
2019-03-30T16:35:07.144Z,19.31
2019-03-30T16:37:36.521Z,19.20
2019-03-30T16:40:07.325Z,19.88
2019-03-30T16:42:36.658Z,20.58
2019-03-30T16:45:08.123Z,21.00
2019-03-30T16:47:37.473Z,21.16
2019-03-30T16:50:08.371Z,21.95
2019-03-30T16:52:40.859Z,22.79
2019-03-30T16:55:08.949Z,22.76
2019-03-30T16:57:43.573Z,22.42
2019-03-30T17:00:09.338Z,23.23
2019-03-30T17:02:38.889Z,23.36
2019-03-30T17:05:09.321Z,23.67
2019-03-30T17:07:39.012Z,24.61
2019-03-30T17:10:08.952Z,24.78
2019-03-30T17:12:38.263Z,24.56
2019-03-30T17:15:07.884Z,24.70
2019-03-30T17:17:37.228Z,25.47
2019-03-30T17:20:08.627Z,25.94
2019-03-30T17:22:38.358Z,26.51
2019-03-30T17:25:08.328Z,27.40
2019-03-30T17:27:37.781Z,28.06
2019-03-30T17:30:09.657Z,28.79
2019-03-30T17:32:38.993Z,29.54
2019-03-30T17:35:08.401Z,29.77
2019-03-30T17:37:37.747Z,29.47
2019-03-30T17:40:09.011Z,29.84
2019-03-30T17:42:38.900Z,30.14
2019-03-30T17:45:09.893Z,30.53
2019-03-30T17:47:39.237Z,30.77
2019-03-30T17:50:09.247Z,30.76
2019-03-30T17:52:38.634Z,31.35
2019-03-30T17:55:08.416Z,31.67
2019-03-30T17:57:37.833Z,32.00
2019-03-30T18:00:10.951Z,32.55
2019-03-30T18:02:40.319Z,32.78
2019-03-30T18:05:09.699Z,33.11
2019-03-30T18:07:39.043Z,33.25
2019-03-30T18:10:08.679Z,33.39
2019-03-30T18:12:38.038Z,33.52
2019-03-30T18:15:08.184Z,33.78
2019-03-30T18:17:37.573Z,33.77
2019-03-30T18:20:07.282Z,33.89
2019-03-30T18:22:36.731Z,34.28
2019-03-30T18:25:07.090Z,34.48
2019-03-30T18:27:36.426Z,34.30
2019-03-30T18:30:08.099Z,34.92
2019-03-30T18:32:37.438Z,35.20
2019-03-30T18:35:07.473Z,35.27
2019-03-30T18:37:36.842Z,35.54
2019-03-30T18:40:09.650Z,35.50
2019-03-30T18:42:38.990Z,35.90
2019-03-30T18:45:08.434Z,36.15
2019-03-30T18:47:37.793Z,36.43
2019-03-30T18:50:08.379Z,36.48
2019-03-30T18:52:37.728Z,37.32
2019-03-30T18:55:07.897Z,38.35
2019-03-30T18:57:37.235Z,37.79
2019-03-30T19:00:09.361Z,38.10
2019-03-30T19:02:38.065Z,38.19
2019-03-30T19:05:09.820Z,38.68
2019-03-30T19:07:39.159Z,38.75
2019-03-30T19:10:08.515Z,39.30
2019-03-30T19:12:37.889Z,39.27
2019-03-30T19:15:07.387Z,39.45
2019-03-30T19:17:36.755Z,40.05
2019-03-30T19:20:08.819Z,39.79
2019-03-30T19:22:38.178Z,39.26
2019-03-30T19:25:08.475Z,39.71
2019-03-30T19:27:37.832Z,39.88
2019-03-30T19:30:10.975Z,40.16
2019-03-30T19:32:40.327Z,40.62
2019-03-30T19:35:09.674Z,41.23
2019-03-30T19:37:39.106Z,40.85
2019-03-30T19:40:08.481Z,41.32
2019-03-30T19:42:37.934Z,41.24
2019-03-30T19:45:09.877Z,41.60
2019-03-30T19:47:39.224Z,41.52
2019-03-30T19:50:08.576Z,41.55
2019-03-30T19:52:40.286Z,41.29
2019-03-30T19:55:09.040Z,40.91
2019-03-30T19:57:38.400Z,41.52
2019-03-30T20:00:12.166Z,42.15
2019-03-30T20:02:41.586Z,42.42
2019-03-30T20:05:10.961Z,42.88
2019-03-30T20:07:40.438Z,42.56
2019-03-30T20:10:09.800Z,42.36
2019-03-30T20:12:39.331Z,42.76
2019-03-30T20:15:09.169Z,42.98
2019-03-30T20:17:38.603Z,43.17
2019-03-30T20:20:07.977Z,43.47
2019-03-30T20:22:37.311Z,43.76
2019-03-30T20:25:08.607Z,43.41
2019-03-30T20:27:37.980Z,43.69
2019-03-30T20:30:09.429Z,43.75
2019-03-30T20:32:38.819Z,44.01
2019-03-30T20:35:09.057Z,43.63
2019-03-30T20:37:38.401Z,43.64
2019-03-30T20:40:08.795Z,43.91
2019-03-30T20:42:38.204Z,44.01
2019-03-30T20:45:07.722Z,44.10
2019-03-30T20:47:37.087Z,44.46
2019-03-30T20:50:07.159Z,44.89
2019-03-30T20:52:36.540Z,44.90
2019-03-30T20:55:07.027Z,45.11
2019-03-30T20:57:36.482Z,45.02
2019-03-30T21:00:09.991Z,45.07
2019-03-30T21:02:39.363Z,45.15
2019-03-30T21:05:08.724Z,45.85
2019-03-30T21:07:41.627Z,46.19
2019-03-30T21:10:09.179Z,46.21
2019-03-30T21:12:38.521Z,46.13
2019-03-30T21:15:08.071Z,45.94
2019-03-30T21:17:37.418Z,46.54
2019-03-30T21:20:06.991Z,46.48
2019-03-30T21:22:36.723Z,46.46
2019-03-30T21:25:06.814Z,46.55
2019-03-30T21:27:36.186Z,46.94
2019-03-30T21:30:08.966Z,47.44
2019-03-30T21:32:38.309Z,47.55
2019-03-30T21:35:08.443Z,47.44
2019-03-30T21:37:37.794Z,47.21
2019-03-30T21:40:07.644Z,47.45
2019-03-30T21:42:37.089Z,47.54
2019-03-30T21:45:08.085Z,47.68
2019-03-30T21:47:37.584Z,47.79
2019-03-30T21:50:08.660Z,47.84
2019-03-30T21:52:38.048Z,48.06
2019-03-30T21:55:07.458Z,48.19
2019-03-30T21:57:36.798Z,48.29
2019-03-30T22:00:10.454Z,48.41
2019-03-30T22:02:37.595Z,48.62
2019-03-30T22:05:07.833Z,48.63
2019-03-30T22:07:37.182Z,48.68
2019-03-30T22:10:09.250Z,48.89
2019-03-30T22:12:40.713Z,48.64
2019-03-30T22:15:10.073Z,48.67
2019-03-30T22:17:39.452Z,49.21
2019-03-30T22:20:08.823Z,49.08
2019-03-30T22:22:38.165Z,49.25
2019-03-30T22:25:07.599Z,49.24
2019-03-30T22:27:39.868Z,49.80
2019-03-30T22:30:23.684Z,49.82
2019-03-30T22:32:40.315Z,49.80
2019-03-30T22:35:09.658Z,49.70
2019-03-30T22:37:39.010Z,49.61
2019-03-30T22:40:09.790Z,49.25
2019-03-30T22:42:39.150Z,49.17
2019-03-30T22:45:08.489Z,49.72
2019-03-30T22:47:37.820Z,50.12
2019-03-30T22:50:08.538Z,50.27
2019-03-30T22:52:37.887Z,50.25
2019-03-30T22:55:07.703Z,50.49
2019-03-30T22:57:37.053Z,50.56
2019-03-30T23:00:12.586Z,50.27
2019-03-30T23:02:41.928Z,50.61
2019-03-30T23:05:11.305Z,50.44
2019-03-30T23:07:40.712Z,50.54
2019-03-30T23:10:10.058Z,51.08
2019-03-30T23:12:39.432Z,51.02
2019-03-30T23:15:08.788Z,51.41
2019-03-30T23:17:38.597Z,51.05
2019-03-30T23:20:07.954Z,51.50
2019-03-30T23:22:37.316Z,52.12
2019-03-30T23:25:08.028Z,52.13
2019-03-30T23:27:37.382Z,51.63
2019-03-30T23:30:09.731Z,51.39
2019-03-30T23:32:39.102Z,52.21
2019-03-30T23:35:08.425Z,52.19
2019-03-30T23:37:37.801Z,51.98
2019-03-30T23:40:08.018Z,52.17
2019-03-30T23:42:37.427Z,52.22
2019-03-30T23:45:06.797Z,52.44
2019-03-30T23:47:36.140Z,52.44
2019-03-30T23:50:07.769Z,52.66
2019-03-30T23:52:37.123Z,52.81
2019-03-30T23:55:09.204Z,53.19
2019-03-30T23:57:37.913Z,52.95
